createdAt,value
2018-11-23T00:03:45.461Z,33.40
2018-11-23T00:06:13.930Z,39.20
2018-11-23T00:08:42.498Z,36.70
2018-11-23T00:11:10.925Z,34.30
2018-11-23T00:13:40.254Z,40.13
2018-11-23T00:16:08.790Z,37.20
2018-11-23T00:18:37.253Z,43.10
2018-11-23T00:21:05.749Z,37.43
2018-11-23T00:23:34.168Z,39.57
2018-11-23T00:26:02.620Z,38.70
2018-11-23T00:28:31.064Z,32.60
2018-11-23T00:30:59.567Z,34.70
2018-11-23T00:33:28.027Z,31.33
2018-11-23T00:35:57.139Z,34.00
2018-11-23T00:38:25.626Z,37.53
2018-11-23T00:40:54.236Z,32.53
2018-11-23T00:43:22.707Z,36.57
2018-11-23T00:45:51.175Z,32.47
2018-11-23T00:48:19.615Z,40.23
2018-11-23T00:50:48.068Z,33.70
2018-11-23T00:53:16.518Z,45.63
2018-11-23T00:55:45.730Z,35.27
2018-11-23T00:58:14.195Z,38.73
2018-11-23T01:00:42.706Z,42.00
2018-11-23T01:03:11.135Z,35.10
2018-11-23T01:05:39.609Z,35.60
2018-11-23T01:08:08.047Z,33.70
2018-11-23T01:10:36.518Z,34.17
2018-11-23T01:13:05.614Z,33.43
2018-11-23T01:15:34.139Z,34.63
2018-11-23T01:18:02.658Z,32.87
2018-11-23T01:20:31.157Z,35.97
2018-11-23T01:22:59.649Z,41.60
2018-11-23T01:25:28.656Z,38.70
2018-11-23T01:27:57.494Z,36.47
2018-11-23T01:30:30.195Z,35.40
2018-11-23T01:32:58.693Z,44.13
2018-11-23T01:35:28.124Z,46.13
2018-11-23T01:37:56.617Z,39.40
2018-11-23T01:40:26.330Z,33.67
2018-11-23T01:42:55.185Z,32.57
2018-11-23T01:45:23.672Z,35.33
2018-11-23T01:47:52.126Z,31.40
2018-11-23T01:50:23.942Z,31.93
2018-11-23T01:52:52.801Z,34.87
2018-11-23T01:55:22.108Z,34.23
2018-11-23T01:57:50.638Z,36.67
2018-11-23T02:00:20.430Z,31.07
2018-11-23T02:02:49.646Z,38.17
2018-11-23T02:05:18.127Z,36.40
2018-11-23T02:07:46.640Z,32.07
2018-11-23T02:10:16.165Z,33.33
2018-11-23T02:12:44.699Z,32.10
2018-11-23T02:15:16.126Z,39.37
2018-11-23T02:17:44.707Z,35.63
2018-11-23T02:20:14.501Z,36.10
2018-11-23T02:22:43.042Z,33.60
2018-11-23T02:25:11.513Z,35.50
2018-11-23T02:27:39.990Z,39.33
2018-11-23T02:30:15.707Z,42.10
2018-11-23T02:32:44.604Z,38.57
2018-11-23T02:35:13.662Z,44.33
2018-11-23T02:37:42.128Z,39.80
2018-11-23T02:40:12.086Z,39.93
2018-11-23T02:42:40.538Z,36.63
2018-11-23T02:45:12.586Z,48.07
2018-11-23T02:47:41.734Z,44.50
2018-11-23T02:50:10.290Z,40.43
2018-11-23T02:52:39.312Z,40.60
2018-11-23T02:55:08.401Z,37.33
2018-11-23T02:57:37.500Z,38.73
2018-11-23T03:00:08.935Z,43.40
2018-11-23T03:02:37.388Z,40.33
2018-11-23T03:05:06.849Z,43.07
2018-11-23T03:07:35.282Z,44.70
2018-11-23T03:10:03.848Z,44.27
2018-11-23T03:12:32.295Z,39.90
2018-11-23T03:15:00.738Z,37.97
2018-11-23T03:17:29.163Z,36.90
2018-11-23T03:19:57.683Z,42.43
2018-11-23T03:22:26.149Z,39.23
2018-11-23T03:24:54.593Z,47.93
2018-11-23T03:27:23.030Z,36.43
2018-11-23T03:29:51.497Z,37.97
2018-11-23T03:32:19.975Z,39.03
2018-11-23T03:34:48.486Z,37.10
2018-11-23T03:37:16.948Z,32.50
2018-11-23T03:39:45.373Z,37.10
2018-11-23T03:42:13.831Z,40.43
2018-11-23T03:44:42.309Z,40.33
2018-11-23T03:47:10.731Z,34.23
2018-11-23T03:49:39.210Z,34.13
2018-11-23T03:52:07.643Z,36.50
2018-11-23T03:54:36.137Z,41.10
2018-11-23T03:57:04.569Z,34.37
2018-11-23T03:59:33.021Z,31.60
2018-11-23T04:02:02.729Z,38.27
2018-11-23T04:04:31.250Z,34.60
2018-11-23T04:06:59.975Z,34.53
2018-11-23T04:09:28.436Z,34.87
2018-11-23T04:11:56.963Z,35.80
2018-11-23T04:14:25.411Z,35.23
2018-11-23T04:16:54.171Z,38.53
2018-11-23T04:19:22.803Z,45.00
2018-11-23T04:21:51.686Z,33.83
2018-11-23T04:24:20.105Z,40.13
2018-11-23T04:26:48.578Z,34.50
2018-11-23T04:29:17.015Z,38.37
2018-11-23T04:31:45.471Z,39.77
2018-11-23T04:34:16.858Z,37.80
2018-11-23T04:36:45.300Z,35.00
2018-11-23T04:39:13.738Z,39.10
2018-11-23T04:41:46.199Z,39.17
2018-11-23T04:44:10.694Z,35.80
2018-11-23T04:46:39.130Z,34.97
2018-11-23T04:49:07.711Z,33.63
2018-11-23T04:51:36.231Z,38.23
2018-11-23T04:54:05.008Z,35.17
2018-11-23T04:56:33.438Z,35.83
2018-11-23T04:59:01.890Z,36.63
2018-11-23T05:01:30.323Z,36.90
2018-11-23T05:03:58.748Z,34.60
2018-11-23T05:06:27.189Z,37.77
2018-11-23T05:08:55.603Z,38.00
2018-11-23T05:11:24.081Z,41.63
2018-11-23T05:13:52.607Z,35.53
2018-11-23T05:16:21.095Z,42.43
2018-11-23T05:18:49.546Z,40.23
2018-11-23T05:21:17.994Z,32.70
2018-11-23T05:23:46.423Z,41.50
2018-11-23T05:26:14.878Z,35.80
2018-11-23T05:28:43.335Z,35.40
2018-11-23T05:31:11.889Z,30.07
2018-11-23T05:33:40.822Z,39.17
2018-11-23T05:36:09.894Z,34.40
2018-11-23T05:38:38.299Z,42.80
2018-11-23T05:41:06.741Z,33.10
2018-11-23T05:43:35.179Z,38.53
2018-11-23T05:46:03.629Z,33.03
2018-11-23T05:48:32.079Z,38.47
2018-11-23T05:51:00.546Z,31.40
2018-11-23T05:53:28.968Z,38.97
2018-11-23T05:55:57.450Z,38.60
2018-11-23T05:58:25.893Z,37.70
2018-11-23T06:00:54.466Z,51.13
2018-11-23T06:03:22.915Z,49.20
2018-11-23T06:05:51.374Z,42.20
2018-11-23T06:08:19.838Z,36.13
2018-11-23T06:10:48.289Z,45.73
2018-11-23T06:13:16.770Z,39.90
2018-11-23T06:15:45.840Z,41.30
2018-11-23T06:18:18.681Z,40.97
2018-11-23T06:20:47.151Z,39.23
2018-11-23T06:23:15.755Z,40.00
2018-11-23T06:25:46.703Z,43.73
2018-11-23T06:28:15.129Z,42.37
2018-11-23T06:30:45.696Z,41.43
2018-11-23T06:33:37.295Z,35.27
2018-11-23T06:36:05.855Z,34.83
2018-11-23T06:38:34.323Z,32.63
2018-11-23T06:41:02.782Z,38.03
2018-11-23T06:43:32.022Z,36.07
2018-11-23T06:46:01.456Z,34.17
2018-11-23T06:48:29.922Z,31.17
2018-11-23T06:50:58.342Z,36.10
2018-11-23T06:53:27.290Z,38.00
2018-11-23T06:55:56.271Z,35.70
2018-11-23T06:58:24.810Z,40.93
2018-11-23T07:00:53.725Z,34.60
2018-11-23T07:03:28.866Z,38.93
2018-11-23T07:05:58.540Z,38.97
2018-11-23T07:08:27.087Z,38.50
2018-11-23T07:10:59.141Z,38.40
2018-11-23T07:13:28.654Z,41.70
2018-11-23T07:15:57.474Z,40.60
2018-11-23T07:18:25.936Z,41.63
2018-11-23T07:20:54.398Z,39.10
2018-11-23T07:23:23.029Z,39.97
2018-11-23T07:25:52.509Z,40.87
2018-11-23T07:28:21.025Z,36.37
2018-11-23T07:31:05.643Z,39.10
2018-11-23T07:33:35.293Z,42.43
2018-11-23T07:36:03.873Z,34.47
2018-11-23T07:38:35.476Z,39.80
2018-11-23T07:41:15.144Z,34.27
2018-11-23T07:43:43.726Z,34.53
2018-11-23T07:46:12.211Z,31.43
2018-11-23T07:48:40.740Z,33.80
2018-11-23T07:51:09.801Z,31.10
2018-11-23T07:53:38.324Z,38.53
2018-11-23T07:56:07.014Z,36.67
2018-11-23T07:58:35.486Z,36.80
2018-11-23T08:01:04.130Z,38.30
2018-11-23T08:03:32.711Z,35.50
2018-11-23T08:06:01.381Z,34.63
2018-11-23T08:08:29.927Z,36.83
2018-11-23T08:10:58.321Z,43.47
2018-11-23T08:13:28.968Z,38.17
2018-11-23T08:15:59.463Z,40.10
2018-11-23T08:18:30.367Z,41.20
2018-11-23T08:21:01.827Z,35.60
2018-11-23T08:23:30.423Z,40.23
2018-11-23T08:25:59.037Z,50.97
2018-11-23T08:28:27.503Z,41.03
2018-11-23T08:30:56.058Z,41.10
2018-11-23T08:33:24.647Z,49.20
2018-11-23T08:35:53.118Z,52.30
2018-11-23T08:38:21.595Z,45.77
2018-11-23T08:40:51.055Z,36.30
2018-11-23T08:43:19.619Z,40.73
2018-11-23T08:45:48.103Z,42.10
2018-11-23T08:48:16.583Z,36.43
2018-11-23T08:50:45.040Z,36.33
2018-11-23T08:53:14.339Z,37.00
2018-11-23T08:55:42.794Z,45.30
2018-11-23T08:58:11.295Z,41.37
2018-11-23T09:00:39.779Z,43.50
2018-11-23T09:03:08.235Z,43.80
2018-11-23T09:05:36.683Z,39.77
2018-11-23T09:08:05.706Z,39.13
2018-11-23T09:10:34.171Z,45.93
2018-11-23T09:13:03.576Z,39.83
2018-11-23T09:15:32.081Z,38.97
2018-11-23T09:18:00.924Z,34.83
2018-11-23T09:20:29.385Z,33.90
2018-11-23T09:22:57.924Z,38.03
2018-11-23T09:25:26.444Z,39.97
2018-11-23T09:27:54.861Z,36.77
2018-11-23T09:30:24.668Z,35.63
2018-11-23T09:32:53.869Z,47.83
2018-11-23T09:35:22.547Z,41.70
2018-11-23T09:37:51.644Z,34.50
2018-11-23T09:40:22.973Z,31.30
2018-11-23T09:42:51.699Z,37.37
2018-11-23T09:45:21.393Z,36.83
2018-11-23T09:47:51.039Z,38.53
2018-11-23T09:50:21.440Z,27.40
2018-11-23T09:52:51.250Z,31.70
2018-11-23T09:55:20.439Z,31.13
2018-11-23T09:57:49.253Z,26.97
2018-11-23T10:00:19.968Z,33.60
2018-11-23T10:02:49.287Z,33.60
2018-11-23T10:05:18.161Z,29.23
2018-11-23T10:07:48.007Z,31.77
2018-11-23T10:10:17.219Z,37.30
2018-11-23T10:12:45.679Z,35.00
2018-11-23T10:15:16.183Z,34.93
2018-11-23T10:17:44.705Z,35.63
2018-11-23T10:20:15.130Z,33.17
2018-11-23T10:22:43.989Z,29.23
2018-11-23T10:25:13.900Z,26.17
2018-11-23T10:27:43.008Z,30.07
2018-11-23T10:30:15.330Z,27.40
2018-11-23T10:32:44.183Z,27.77
2018-11-23T10:35:12.899Z,28.03
2018-11-23T10:37:42.257Z,24.60
2018-11-23T10:40:13.023Z,23.23
2018-11-23T10:42:41.888Z,33.07
2018-11-23T10:45:18.930Z,25.80
2018-11-23T10:47:47.783Z,22.87
2018-11-23T10:50:18.599Z,21.53
2018-11-23T10:52:46.673Z,20.37
2018-11-23T10:55:17.189Z,23.57
2018-11-23T10:57:45.742Z,23.43
2018-11-23T11:00:20.609Z,24.93
2018-11-23T11:03:54.626Z,21.57
2018-11-23T11:06:29.064Z,26.03
2018-11-23T11:08:57.515Z,24.40
2018-11-23T11:11:27.014Z,24.23
2018-11-23T11:13:55.467Z,22.60
2018-11-23T11:16:23.945Z,17.77
2018-11-23T11:18:52.531Z,24.20
2018-11-23T11:21:20.964Z,23.57
2018-11-23T11:23:49.403Z,19.67
2018-11-23T11:26:17.840Z,18.40
2018-11-23T11:28:46.306Z,24.37
2018-11-23T11:31:14.753Z,23.80
2018-11-23T11:33:43.213Z,33.83
2018-11-23T11:36:11.745Z,25.87
2018-11-23T11:38:40.192Z,29.37
2018-11-23T11:41:08.718Z,31.23
2018-11-23T11:43:37.788Z,29.77
2018-11-23T11:46:06.692Z,29.93
2018-11-23T11:48:35.142Z,31.37
2018-11-23T11:51:03.646Z,27.23
2018-11-23T11:53:32.099Z,25.77
2018-11-23T11:56:00.553Z,22.43
2018-11-23T11:58:29.015Z,28.53
2018-11-23T12:00:57.453Z,31.50
2018-11-23T12:03:26.171Z,29.97
2018-11-23T12:05:54.596Z,25.43
2018-11-23T12:08:23.015Z,33.83
2018-11-23T12:10:51.534Z,33.37
2018-11-23T12:13:19.975Z,30.90
2018-11-23T12:15:48.435Z,34.80
2018-11-23T12:18:16.878Z,31.03
2018-11-23T12:20:45.298Z,28.60
2018-11-23T12:23:13.711Z,30.87
2018-11-23T12:25:42.174Z,30.20
2018-11-23T12:28:10.657Z,28.47
2018-11-23T12:30:39.116Z,24.53
2018-11-23T12:33:07.558Z,21.83
2018-11-23T12:35:36.021Z,31.50
2018-11-23T12:38:04.513Z,34.90
2018-11-23T12:40:32.968Z,30.70
2018-11-23T12:43:01.405Z,24.07
2018-11-23T12:45:29.948Z,29.10
2018-11-23T12:48:00.298Z,29.20
2018-11-23T12:50:28.802Z,28.60
2018-11-23T12:52:57.510Z,30.33
2018-11-23T12:55:34.324Z,28.53
2018-11-23T12:58:11.741Z,27.50
2018-11-23T13:00:45.127Z,28.53
2018-11-23T13:03:13.635Z,28.47
2018-11-23T13:05:45.540Z,29.90
2018-11-23T13:08:13.967Z,28.83
2018-11-23T13:10:43.076Z,27.97
2018-11-23T13:13:10.889Z,24.80
2018-11-23T13:15:39.338Z,27.10
2018-11-23T13:18:07.778Z,29.77
2018-11-23T13:20:36.237Z,29.43
2018-11-23T13:23:04.699Z,26.40
2018-11-23T13:25:33.789Z,31.13
2018-11-23T13:28:02.502Z,27.50
2018-11-23T13:30:33.805Z,26.40
2018-11-23T13:33:02.290Z,24.37
2018-11-23T13:35:30.876Z,29.20
2018-11-23T13:38:00.258Z,31.80
2018-11-23T13:40:29.401Z,30.90
2018-11-23T13:42:58.829Z,32.93
2018-11-23T13:45:28.718Z,35.60
2018-11-23T13:48:00.917Z,30.40
2018-11-23T13:50:34.971Z,29.00
2018-11-23T13:53:03.425Z,34.10
2018-11-23T13:55:31.868Z,28.17
2018-11-23T13:58:01.234Z,25.40
2018-11-23T14:00:32.737Z,23.40
2018-11-23T14:03:02.226Z,28.63
2018-11-23T14:05:31.829Z,30.53
2018-11-23T14:08:03.495Z,28.27
2018-11-23T14:10:41.772Z,39.53
2018-11-23T14:13:20.426Z,31.40
2018-11-23T14:15:55.235Z,31.87
2018-11-23T14:18:32.845Z,29.57
2018-11-23T14:21:06.782Z,23.60
2018-11-23T14:23:36.672Z,28.87
2018-11-23T14:26:09.643Z,26.37
2018-11-23T14:28:40.786Z,27.17
2018-11-23T14:31:09.217Z,24.53
2018-11-23T14:33:37.623Z,25.50
2018-11-23T14:36:06.463Z,26.77
2018-11-23T14:38:35.044Z,28.13
2018-11-23T14:41:10.375Z,26.50
2018-11-23T14:43:38.837Z,25.20
2018-11-23T14:46:07.293Z,27.93
2018-11-23T14:48:35.733Z,29.90
2018-11-23T14:51:04.194Z,26.63
2018-11-23T14:53:32.637Z,25.03
2018-11-23T14:56:01.088Z,26.77
2018-11-23T14:58:36.302Z,29.00
2018-11-23T15:01:05.093Z,25.60
2018-11-23T15:03:33.538Z,26.13
2018-11-23T15:06:01.959Z,27.60
2018-11-23T15:08:30.482Z,31.37
2018-11-23T15:10:58.922Z,26.33
2018-11-23T15:13:29.711Z,28.43
2018-11-23T15:16:03.365Z,31.20
2018-11-23T15:18:31.834Z,30.70
2018-11-23T15:21:00.266Z,29.97
2018-11-23T15:23:28.714Z,33.57
2018-11-23T15:25:57.189Z,35.60
2018-11-23T15:28:25.618Z,33.17
2018-11-23T15:30:54.066Z,29.43
2018-11-23T15:33:22.882Z,32.17
2018-11-23T15:35:51.624Z,38.97
2018-11-23T15:38:21.384Z,30.30
2018-11-23T15:40:49.832Z,33.43
2018-11-23T15:43:19.328Z,38.00
2018-11-23T15:45:47.818Z,32.40
2018-11-23T15:48:16.236Z,29.93
2018-11-23T15:50:45.041Z,40.63
2018-11-23T15:53:15.556Z,31.83
2018-11-23T15:55:44.002Z,39.90
2018-11-23T15:58:14.738Z,31.10
2018-11-23T16:00:44.603Z,36.40
2018-11-23T16:03:20.070Z,49.23
2018-11-23T16:05:48.496Z,47.47
2018-11-23T16:08:18.505Z,55.13
2018-11-23T16:10:46.982Z,35.60
2018-11-23T16:13:15.454Z,36.87
2018-11-23T16:15:44.028Z,30.33
2018-11-23T16:18:13.030Z,35.00
2018-11-23T16:20:43.120Z,32.73
2018-11-23T16:23:13.178Z,31.37
2018-11-23T16:25:42.138Z,34.47
2018-11-23T16:28:11.320Z,35.27
2018-11-23T16:30:42.194Z,32.70
2018-11-23T16:33:12.306Z,34.67
2018-11-23T16:35:41.181Z,33.77
2018-11-23T16:38:14.875Z,29.90
2018-11-23T16:40:45.249Z,29.60
2018-11-23T16:43:14.420Z,35.10
2018-11-23T16:45:43.658Z,30.73
2018-11-23T16:48:13.034Z,34.07
2018-11-23T16:50:41.583Z,33.77
2018-11-23T16:53:10.044Z,38.03
2018-11-23T16:55:38.531Z,39.20
2018-11-23T16:58:08.263Z,31.63
2018-11-23T17:00:39.102Z,31.20
2018-11-23T17:03:11.831Z,40.93
2018-11-23T17:05:41.727Z,28.90
2018-11-23T17:08:10.502Z,31.60
2018-11-23T17:10:38.970Z,33.10
2018-11-23T17:13:07.482Z,28.70
2018-11-23T17:15:35.932Z,30.97
2018-11-23T17:18:04.444Z,33.13
2018-11-23T17:20:33.799Z,34.53
2018-11-23T17:23:03.339Z,35.90
2018-11-23T17:25:32.235Z,35.50
2018-11-23T17:28:02.113Z,34.30
2018-11-23T17:30:31.830Z,30.33
2018-11-23T17:33:01.131Z,34.10
2018-11-23T17:35:29.951Z,32.83
2018-11-23T17:37:58.913Z,39.17
2018-11-23T17:40:28.857Z,35.03
2018-11-23T17:42:58.434Z,42.97
2018-11-23T17:45:27.959Z,42.33
2018-11-23T17:47:56.591Z,34.37
2018-11-23T17:50:29.316Z,47.63
2018-11-23T17:52:58.042Z,38.10
2018-11-23T17:55:26.532Z,37.87
2018-11-23T17:57:55.706Z,41.03
2018-11-23T18:00:25.635Z,39.20
2018-11-23T18:02:54.727Z,40.43
2018-11-23T18:05:24.295Z,38.50
2018-11-23T18:07:52.984Z,38.30
2018-11-23T18:10:23.131Z,45.03
2018-11-23T18:12:52.313Z,34.13
2018-11-23T18:15:23.827Z,42.13
2018-11-23T18:17:52.907Z,39.10
2018-11-23T18:20:22.469Z,38.43
2018-11-23T18:22:51.918Z,35.50
2018-11-23T18:25:21.854Z,43.27
2018-11-23T18:27:54.514Z,42.83
2018-11-23T18:30:22.983Z,36.83
2018-11-23T18:32:52.048Z,34.80
2018-11-23T18:35:20.486Z,40.53
2018-11-23T18:37:48.978Z,39.80
2018-11-23T18:40:17.422Z,40.43
2018-11-23T18:42:45.854Z,44.63
2018-11-23T18:45:14.673Z,43.17
2018-11-23T18:47:43.956Z,45.53
2018-11-23T18:50:15.377Z,39.63
2018-11-23T18:52:43.990Z,44.63
2018-11-23T18:55:18.024Z,40.73
2018-11-23T18:57:42.126Z,43.83
2018-11-23T19:00:15.686Z,41.80
2018-11-23T19:02:45.390Z,43.57
2018-11-23T19:05:16.278Z,39.93
2018-11-23T19:07:44.761Z,41.97
2018-11-23T19:10:14.215Z,57.60
2018-11-23T19:12:42.690Z,41.90
2018-11-23T19:15:12.732Z,40.70
2018-11-23T19:17:41.298Z,48.47
2018-11-23T19:20:12.346Z,47.87
2018-11-23T19:22:41.586Z,42.17
2018-11-23T19:25:10.101Z,48.07
2018-11-23T19:27:38.562Z,42.93
2018-11-23T19:30:09.768Z,48.40
2018-11-23T19:32:38.334Z,49.67
2018-11-23T19:35:07.637Z,47.80
2018-11-23T19:37:36.124Z,55.20
2018-11-23T19:40:07.041Z,48.13
2018-11-23T19:42:35.498Z,43.07
2018-11-23T19:45:04.252Z,49.10
2018-11-23T19:47:32.826Z,45.93
2018-11-23T19:50:01.356Z,48.60
2018-11-23T19:52:29.773Z,44.40
2018-11-23T19:54:58.371Z,44.80
2018-11-23T19:57:26.810Z,47.30
2018-11-23T19:59:55.513Z,49.97
2018-11-23T20:02:24.106Z,44.83
2018-11-23T20:04:52.806Z,43.60
2018-11-23T20:07:21.279Z,45.00
2018-11-23T20:09:49.944Z,36.73
2018-11-23T20:12:19.336Z,36.10
2018-11-23T20:14:47.963Z,48.67
2018-11-23T20:17:17.052Z,44.23
2018-11-23T20:19:45.606Z,46.83
2018-11-23T20:22:14.207Z,45.33
2018-11-23T20:24:42.958Z,41.83
